Time;durP1;ratioP1;P1;durP2;ratioP2;P2;SDS_P1;SDS_P2;PMS_P1;PMS_P2;Temp;Humidity;BMP_temperature;BMP_pressure;BME280_temperature;BME280_humidity;BME280_pressure;Samples;Min_cycle;Max_cycle;Signal;HPM_P1;HPM_P2
2024/03/16 00:02:35;;;;;;;43.40;27.23;;;5.50;99.90;;;;;;5847096;23;20173;-86
2024/03/16 00:22:24;;;;;;;42.77;26.67;;;5.20;99.90;;;;;;5605571;24;20658;-85
2024/03/16 00:48:00;;;;;;;41.63;25.63;;;5.20;99.90;;;;;;5689063;24;20163;-85
2024/03/16 01:13:33;;;;;;;45.00;26.50;;;4.80;99.90;;;;;;5659120;24;20777;-87
2024/03/16 01:39:00;;;;;;;42.13;25.87;;;4.60;99.90;;;;;;5766464;24;20213;-84
2024/03/16 01:43:19;;;;;;;43.87;26.80;;;4.70;99.90;;;;;;5635017;24;20424;-86
2024/03/16 02:03:57;;;;;;;43.00;27.27;;;4.80;99.90;;;;;;5766118;24;20499;-86
2024/03/16 02:24:33;;;;;;;43.03;26.53;;;4.90;99.90;;;;;;5647153;24;20201;-85
2024/03/16 02:44:53;;;;;;;42.90;26.00;;;4.50;99.90;;;;;;5562016;24;20706;-85
2024/03/16 03:05:15;;;;;;;45.93;27.57;;;4.30;99.90;;;;;;5720311;24;20180;-84
2024/03/16 03:09:34;;;;;;;49.23;28.87;;;4.30;99.90;;;;;;5589509;24;20600;-87
2024/03/16 03:30:28;;;;;;;45.03;27.77;;;4.10;99.90;;;;;;5848283;23;20221;-85
2024/03/16 03:55:55;;;;;;;48.93;27.63;;;3.80;99.90;;;;;;5771324;24;20252;-84
2024/03/16 04:16:14;;;;;;;50.27;28.43;;;4.10;99.90;;;;;;5628435;24;20212;-85
2024/03/16 04:20:33;;;;;;;51.77;30.57;;;4.30;99.90;;;;;;5523951;24;20671;-85
2024/03/16 04:36:18;;;;;;;52.53;30.17;;;4.60;99.90;;;;;;5568906;24;20906;-84
2024/03/16 05:01:36;;;;;;;46.17;27.30;;;4.90;99.90;;;;;;5660952;24;21044;-84
2024/03/16 05:21:45;;;;;;;44.30;26.93;;;5.30;99.90;;;;;;5601391;24;20302;-87
2024/03/16 05:47:25;;;;;;;36.80;24.73;;;5.50;99.90;;;;;;5673280;24;20408;-85
2024/03/16 06:28:05;;;;;;;41.33;26.23;;;6.20;99.90;;;;;;5746148;24;20179;-84
2024/03/16 06:32:25;;;;;;;46.07;25.97;;;6.30;99.90;;;;;;5628302;24;20654;-86
2024/03/16 06:58:31;;;;;;;35.27;23.77;;;6.90;99.90;;;;;;5692501;24;20179;-85
2024/03/16 07:02:52;;;;;;;36.60;24.10;;;6.90;99.90;;;;;;5548989;24;20654;-85
2024/03/16 07:43:55;;;;;;;36.93;24.60;;;7.10;99.90;;;;;;5789701;24;20198;-86
2024/03/16 08:09:32;;;;;;;38.27;24.93;;;7.50;99.90;;;;;;5955022;23;20176;-83
2024/03/16 08:34:40;;;;;;;36.93;26.17;;;8.10;99.90;;;;;;5760547;23;20181;-87
2024/03/16 09:04:57;;;;;;;37.87;25.70;;;10.00;99.90;;;;;;5778119;24;20429;-83
2024/03/16 09:30:18;;;;;;;40.17;26.90;;;11.00;99.90;;;;;;5692950;24;20556;-86
2024/03/16 09:56:07;;;;;;;39.87;27.93;;;10.70;99.90;;;;;;5652604;24;20236;-83
2024/03/16 10:00:23;;;;;;;43.97;29.77;;;10.40;99.90;;;;;;5658076;24;20459;-87
2024/03/16 10:16:20;;;;;;;42.93;30.37;;;10.30;99.90;;;;;;5809799;24;20255;-86
2024/03/16 10:40:59;;;;;;;45.57;32.87;;;11.20;99.90;;;;;;5830688;23;20193;-87
2024/03/16 11:01:51;;;;;;;39.20;28.77;;;12.10;99.90;;;;;;5810543;23;20469;-86
2024/03/16 11:21:45;;;;;;;40.27;28.80;;;12.40;99.90;;;;;;5865035;23;20450;-86
2024/03/16 11:52:26;;;;;;;30.57;23.33;;;13.40;99.90;;;;;;5752045;24;20420;-86
2024/03/16 12:23:02;;;;;;;27.47;22.20;;;15.10;99.90;;;;;;5823346;23;20216;-85
2024/03/16 12:48:23;;;;;;;22.53;19.30;;;15.80;99.90;;;;;;5784442;23;20182;-84
2024/03/16 13:18:56;;;;;;;30.50;23.70;;;16.00;99.90;;;;;;5628435;24;20294;-84
2024/03/16 13:43:48;;;;;;;28.77;24.17;;;15.10;99.90;;;;;;5704500;24;20619;-85
2024/03/16 14:09:27;;;;;;;12.73;11.83;;;12.30;99.90;;;;;;5721546;24;20212;-87
2024/03/16 14:44:59;;;;;;;4.70;3.20;;;12.30;99.90;;;;;;5849065;24;20505;-87
2024/03/16 15:10:34;;;;;;;5.43;3.53;;;12.30;99.90;;;;;;5962764;23;20240;-86
2024/03/16 15:14:53;;;;;;;5.53;3.83;;;12.30;99.90;;;;;;5879678;23;21027;-85
2024/03/16 15:35:25;;;;;;;6.63;3.83;;;12.20;99.90;;;;;;5806269;23;20618;-87
2024/03/16 15:55:51;;;;;;;8.47;6.17;;;11.70;99.90;;;;;;5643241;24;20870;-85
2024/03/16 16:16:19;;;;;;;6.80;5.97;;;11.20;99.90;;;;;;5735943;24;20558;-86
2024/03/16 16:36:17;;;;;;;9.50;7.63;;;10.70;99.90;;;;;;5796027;24;20539;-86
2024/03/16 17:06:56;;;;;;;14.70;11.33;;;9.80;99.90;;;;;;5829591;24;20235;-87
2024/03/16 17:32:18;;;;;;;19.93;15.20;;;9.00;99.90;;;;;;5625170;24;20216;-85
2024/03/16 18:12:38;;;;;;;46.67;31.10;;;8.20;99.90;;;;;;5805295;24;20569;-86
2024/03/16 18:33:04;;;;;;;43.40;29.73;;;8.30;99.90;;;;;;5739058;24;20560;-85
2024/03/16 19:19:00;;;;;;;45.63;40.57;;;9.10;99.90;;;;;;5657828;24;20566;-84
2024/03/16 19:43:44;;;;;;;36.17;29.93;;;9.80;99.90;;;;;;5765416;24;20813;-86
2024/03/16 21:15:32;;;;;;;33.57;26.63;;;9.80;99.90;;;;;;5758793;24;20381;-86
2024/03/16 21:41:00;;;;;;;26.80;19.23;;;9.80;99.90;;;;;;5765630;24;20227;-83
2024/03/16 22:06:24;;;;;;;7.10;6.40;;;10.20;99.90;;;;;;5583830;25;20311;-87
2024/03/16 22:36:33;;;;;;;6.40;5.80;;;9.90;99.90;;;;;;5666028;24;20499;-85
2024/03/16 22:52:04;;;;;;;5.70;5.03;;;8.80;99.90;;;;;;5749527;24;20232;-81
2024/03/16 23:58:02;;;;;;;6.27;3.67;;;7.30;99.00;;;;;;5668848;24;20243;-85
